sensor_id;sensor_type;location;lat;lon;timestamp;pressure;altitude;pressure_sealevel;temperature;humidity
7433;BME280;32233;49.500;7.764;2023-02-12T00:01:17;100512.06;;;2.66;100.00
7433;BME280;32233;49.500;7.764;2023-02-12T00:03:43;100506.75;;;2.40;100.00
7433;BME280;32233;49.500;7.764;2023-02-12T00:06:10;100510.72;;;2.33;100.00
7433;BME280;32233;49.500;7.764;2023-02-12T00:08:41;100512.56;;;2.31;100.00
7433;BME280;32233;49.500;7.764;2023-02-12T00:11:13;100511.38;;;2.22;100.00
7433;BME280;32233;49.500;7.764;2023-02-12T00:13:41;100507.56;;;2.68;100.00
7433;BME280;32233;49.500;7.764;2023-02-12T00:16:10;100516.41;;;2.53;100.00
7433;BME280;32233;49.500;7.764;2023-02-12T00:18:38;100507.34;;;2.58;100.00
7433;BME280;32233;49.500;7.764;2023-02-12T00:21:05;100503.94;;;2.43;100.00
7433;BME280;32233;49.500;7.764;2023-02-12T00:23:35;100510.16;;;2.55;100.00
7433;BME280;32233;49.500;7.764;2023-02-12T00:26:06;100513.28;;;2.60;100.00
7433;BME280;32233;49.500;7.764;2023-02-12T00:28:33;100508.28;;;2.57;100.00
7433;BME280;32233;49.500;7.764;2023-02-12T00:31:07;100502.44;;;2.54;100.00
7433;BME280;32233;49.500;7.764;2023-02-12T00:33:34;100502.22;;;2.57;100.00
7433;BME280;32233;49.500;7.764;2023-02-12T00:36:01;100505.88;;;2.54;100.00
7433;BME280;32233;49.500;7.764;2023-02-12T00:38:28;100502.75;;;2.49;100.00
7433;BME280;32233;49.500;7.764;2023-02-12T00:40:55;100505.09;;;2.39;100.00
7433;BME280;32233;49.500;7.764;2023-02-12T00:43:21;100503.19;;;2.29;100.00
7433;BME280;32233;49.500;7.764;2023-02-12T00:45:48;100504.19;;;2.26;100.00
7433;BME280;32233;49.500;7.764;2023-02-12T00:48:16;100501.28;;;2.31;100.00
7433;BME280;32233;49.500;7.764;2023-02-12T00:50:45;100504.47;;;2.48;100.00
7433;BME280;32233;49.500;7.764;2023-02-12T00:53:12;100507.75;;;2.25;100.00
7433;BME280;32233;49.500;7.764;2023-02-12T00:55:39;100502.13;;;2.31;100.00
7433;BME280;32233;49.500;7.764;2023-02-12T00:58:06;100503.78;;;2.32;100.00
7433;BME280;32233;49.500;7.764;2023-02-12T01:00:33;100512.19;;;2.37;100.00
7433;BME280;32233;49.500;7.764;2023-02-12T01:03:00;100512.91;;;2.66;100.00
7433;BME280;32233;49.500;7.764;2023-02-12T01:05:26;100519.81;;;2.40;100.00
7433;BME280;32233;49.500;7.764;2023-02-12T01:07:53;100515.88;;;2.47;100.00
7433;BME280;32233;49.500;7.764;2023-02-12T01:10:20;100520.16;;;2.48;100.00
7433;BME280;32233;49.500;7.764;2023-02-12T01:12:47;100513.53;;;2.57;100.00
7433;BME280;32233;49.500;7.764;2023-02-12T01:15:15;100522.06;;;2.32;100.00
7433;BME280;32233;49.500;7.764;2023-02-12T01:17:42;100524.50;;;2.35;100.00
7433;BME280;32233;49.500;7.764;2023-02-12T01:20:12;100525.38;;;2.48;100.00
7433;BME280;32233;49.500;7.764;2023-02-12T01:22:39;100518.53;;;2.33;100.00
7433;BME280;32233;49.500;7.764;2023-02-12T01:25:06;100518.97;;;2.40;100.00
7433;BME280;32233;49.500;7.764;2023-02-12T01:27:32;100518.13;;;2.39;100.00
7433;BME280;32233;49.500;7.764;2023-02-12T01:29:59;100520.16;;;2.48;100.00
7433;BME280;32233;49.500;7.764;2023-02-12T01:32:26;100521.44;;;2.56;100.00
7433;BME280;32233;49.500;7.764;2023-02-12T01:34:52;100519.66;;;2.56;100.00
7433;BME280;32233;49.500;7.764;2023-02-12T01:37:20;100520.41;;;2.31;100.00
7433;BME280;32233;49.500;7.764;2023-02-12T01:39:47;100523.00;;;2.31;100.00
7433;BME280;32233;49.500;7.764;2023-02-12T01:42:15;100529.22;;;2.70;100.00
7433;BME280;32233;49.500;7.764;2023-02-12T01:47:44;100513.19;;;2.49;100.00
7433;BME280;32233;49.500;7.764;2023-02-12T01:50:14;100517.59;;;2.61;100.00
7433;BME280;32233;49.500;7.764;2023-02-12T01:52:46;100524.69;;;2.59;100.00
7433;BME280;32233;49.500;7.764;2023-02-12T01:55:15;100516.63;;;2.50;100.00
7433;BME280;32233;49.500;7.764;2023-02-12T01:57:44;100515.06;;;2.60;100.00
7433;BME280;32233;49.500;7.764;2023-02-12T02:00:19;100504.69;;;2.45;100.00
7433;BME280;32233;49.500;7.764;2023-02-12T02:02:52;100513.25;;;2.75;100.00
7433;BME280;32233;49.500;7.764;2023-02-12T02:06:13;100506.94;;;2.64;100.00
7433;BME280;32233;49.500;7.764;2023-02-12T02:08:13;100511.94;;;2.55;100.00
7433;BME280;32233;49.500;7.764;2023-02-12T02:10:40;100504.28;;;2.52;100.00
7433;BME280;32233;49.500;7.764;2023-02-12T02:13:07;100508.19;;;2.59;100.00
7433;BME280;32233;49.500;7.764;2023-02-12T02:15:56;100509.50;;;2.52;100.00
7433;BME280;32233;49.500;7.764;2023-02-12T02:18:35;100505.56;;;2.59;100.00
7433;BME280;32233;49.500;7.764;2023-02-12T02:21:45;100501.00;;;2.35;100.00
7433;BME280;32233;49.500;7.764;2023-02-12T02:27:17;100498.16;;;2.11;100.00
7433;BME280;32233;49.500;7.764;2023-02-12T02:32:31;100503.00;;;2.44;100.00
7433;BME280;32233;49.500;7.764;2023-02-12T02:35:09;100498.66;;;2.45;100.00
7433;BME280;32233;49.500;7.764;2023-02-12T02:37:48;100499.34;;;2.34;100.00
7433;BME280;32233;49.500;7.764;2023-02-12T02:40:19;100497.84;;;2.30;100.00
7433;BME280;32233;49.500;7.764;2023-02-12T02:42:51;100494.31;;;2.31;100.00
7433;BME280;32233;49.500;7.764;2023-02-12T02:45:34;100496.94;;;2.44;100.00
7433;BME280;32233;49.500;7.764;2023-02-12T02:48:32;100498.03;;;2.54;100.00
7433;BME280;32233;49.500;7.764;2023-02-12T02:51:08;100503.16;;;2.56;100.00
7433;BME280;32233;49.500;7.764;2023-02-12T02:53:42;100496.25;;;2.55;100.00
7433;BME280;32233;49.500;7.764;2023-02-12T02:56:14;100488.25;;;2.58;100.00
7433;BME280;32233;49.500;7.764;2023-02-12T02:58:47;100494.19;;;2.60;100.00
7433;BME280;32233;49.500;7.764;2023-02-12T03:01:27;100480.81;;;2.64;100.00
7433;BME280;32233;49.500;7.764;2023-02-12T03:04:07;100487.94;;;2.62;100.00
7433;BME280;32233;49.500;7.764;2023-02-12T03:06:43;100488.97;;;2.60;100.00
7433;BME280;32233;49.500;7.764;2023-02-12T03:09:22;100491.03;;;2.55;100.00
7433;BME280;32233;49.500;7.764;2023-02-12T03:11:54;100485.13;;;2.65;100.00
7433;BME280;32233;49.500;7.764;2023-02-12T03:14:37;100485.72;;;2.56;100.00
7433;BME280;32233;49.500;7.764;2023-02-12T03:17:08;100486.34;;;2.60;100.00
7433;BME280;32233;49.500;7.764;2023-02-12T03:19:51;100483.75;;;2.60;100.00
7433;BME280;32233;49.500;7.764;2023-02-12T03:22:27;100483.25;;;2.67;100.00
7433;BME280;32233;49.500;7.764;2023-02-12T03:25:12;100482.59;;;2.64;100.00
7433;BME280;32233;49.500;7.764;2023-02-12T03:27:43;100488.03;;;2.61;100.00
7433;BME280;32233;49.500;7.764;2023-02-12T03:30:12;100481.31;;;2.57;100.00
7433;BME280;32233;49.500;7.764;2023-02-12T03:32:46;100484.72;;;2.44;100.00
7433;BME280;32233;49.500;7.764;2023-02-12T03:35:24;100486.97;;;2.23;100.00
7433;BME280;32233;49.500;7.764;2023-02-12T03:38:04;100490.81;;;2.18;100.00
7433;BME280;32233;49.500;7.764;2023-02-12T03:40:39;100491.00;;;2.15;100.00
7433;BME280;32233;49.500;7.764;2023-02-12T03:43:16;100491.50;;;2.34;100.00
7433;BME280;32233;49.500;7.764;2023-02-12T03:50:53;100490.41;;;2.24;100.00
7433;BME280;32233;49.500;7.764;2023-02-12T03:53:25;100490.31;;;2.26;100.00
7433;BME280;32233;49.500;7.764;2023-02-12T03:55:57;100487.88;;;2.37;100.00
7433;BME280;32233;49.500;7.764;2023-02-12T03:58:27;100488.25;;;2.31;100.00
7433;BME280;32233;49.500;7.764;2023-02-12T04:00:55;100486.81;;;2.39;100.00
7433;BME280;32233;49.500;7.764;2023-02-12T04:03:22;100486.13;;;2.23;100.00
7433;BME280;32233;49.500;7.764;2023-02-12T04:05:49;100495.72;;;2.22;100.00
7433;BME280;32233;49.500;7.764;2023-02-12T04:08:16;100490.91;;;2.43;100.00
7433;BME280;32233;49.500;7.764;2023-02-12T04:11:05;100486.88;;;2.65;100.00
7433;BME280;32233;49.500;7.764;2023-02-12T04:13:56;100495.47;;;2.67;100.00
7433;BME280;32233;49.500;7.764;2023-02-12T04:16:53;100496.00;;;2.72;100.00
7433;BME280;32233;49.500;7.764;2023-02-12T04:19:29;100501.53;;;2.40;100.00
7433;BME280;32233;49.500;7.764;2023-02-12T04:22:16;100503.56;;;2.22;100.00
7433;BME280;32233;49.500;7.764;2023-02-12T04:24:54;100505.03;;;2.54;100.00
7433;BME280;32233;49.500;7.764;2023-02-12T04:27:31;100505.34;;;2.49;100.00
7433;BME280;32233;49.500;7.764;2023-02-12T04:30:18;100510.84;;;2.44;100.00
7433;BME280;32233;49.500;7.764;2023-02-12T04:32:50;100509.22;;;2.56;100.00
7433;BME280;32233;49.500;7.764;2023-02-12T04:35:22;100505.38;;;2.62;100.00
7433;BME280;32233;49.500;7.764;2023-02-12T04:40:24;100500.66;;;2.54;100.00
7433;BME280;32233;49.500;7.764;2023-02-12T04:42:52;100504.47;;;2.48;100.00
7433;BME280;32233;49.500;7.764;2023-02-12T04:45:26;100505.75;;;2.56;100.00
7433;BME280;32233;49.500;7.764;2023-02-12T04:47:53;100498.66;;;2.45;100.00
7433;BME280;32233;49.500;7.764;2023-02-12T04:50:19;100499.16;;;2.23;100.00
7433;BME280;32233;49.500;7.764;2023-02-12T04:52:46;100494.84;;;2.36;100.00
7433;BME280;32233;49.500;7.764;2023-02-12T04:55:13;100492.56;;;2.44;100.00
7433;BME280;32233;49.500;7.764;2023-02-12T04:57:40;100497.09;;;2.28;100.00
7433;BME280;32233;49.500;7.764;2023-02-12T05:00:10;100498.63;;;2.18;100.00
7433;BME280;32233;49.500;7.764;2023-02-12T05:02:38;100483.00;;;2.04;100.00
7433;BME280;32233;49.500;7.764;2023-02-12T05:05:05;100490.06;;;2.16;100.00
7433;BME280;32233;49.500;7.764;2023-02-12T05:07:32;100493.47;;;2.31;100.00
7433;BME280;32233;49.500;7.764;2023-02-12T05:09:58;100491.81;;;2.15;100.00
7433;BME280;32233;49.500;7.764;2023-02-12T05:12:25;100496.63;;;2.09;100.00
7433;BME280;32233;49.500;7.764;2023-02-12T05:14:52;100497.88;;;2.16;100.00
7433;BME280;32233;49.500;7.764;2023-02-12T05:17:21;100494.75;;;2.38;100.00
7433;BME280;32233;49.500;7.764;2023-02-12T05:19:49;100492.28;;;2.49;100.00
7433;BME280;32233;49.500;7.764;2023-02-12T05:22:16;100495.75;;;2.50;100.00
7433;BME280;32233;49.500;7.764;2023-02-12T05:24:43;100492.28;;;2.22;100.00
7433;BME280;32233;49.500;7.764;2023-02-12T05:27:10;100498.09;;;2.13;100.00
7433;BME280;32233;49.500;7.764;2023-02-12T05:29:37;100500.06;;;2.09;100.00
7433;BME280;32233;49.500;7.764;2023-02-12T05:32:04;100501.00;;;2.08;100.00
7433;BME280;32233;49.500;7.764;2023-02-12T05:34:32;100502.47;;;2.12;100.00
7433;BME280;32233;49.500;7.764;2023-02-12T05:37:00;100502.31;;;2.28;100.00
7433;BME280;32233;49.500;7.764;2023-02-12T05:39:26;100493.97;;;2.50;100.00
7433;BME280;32233;49.500;7.764;2023-02-12T05:41:53;100496.16;;;2.56;100.00
7433;BME280;32233;49.500;7.764;2023-02-12T05:44:19;100501.19;;;2.59;100.00
7433;BME280;32233;49.500;7.764;2023-02-12T05:46:46;100498.75;;;2.56;100.00
7433;BME280;32233;49.500;7.764;2023-02-12T05:49:13;100499.22;;;2.63;100.00
7433;BME280;32233;49.500;7.764;2023-02-12T05:51:39;100494.59;;;2.54;100.00
7433;BME280;32233;49.500;7.764;2023-02-12T05:54:06;100504.09;;;2.55;100.00
7433;BME280;32233;49.500;7.764;2023-02-12T05:56:35;100499.22;;;2.63;100.00
7433;BME280;32233;49.500;7.764;2023-02-12T05:59:10;100499.75;;;2.68;100.00
7433;BME280;32233;49.500;7.764;2023-02-12T06:01:40;100499.75;;;2.68;100.00
7433;BME280;32233;49.500;7.764;2023-02-12T06:04:12;100496.41;;;2.66;100.00
7433;BME280;32233;49.500;7.764;2023-02-12T06:06:39;100505.78;;;2.68;100.00
7433;BME280;32233;49.500;7.764;2023-02-12T06:09:09;100503.69;;;2.61;100.00
7433;BME280;32233;49.500;7.764;2023-02-12T06:11:37;100499.59;;;2.57;100.00
7433;BME280;32233;49.500;7.764;2023-02-12T06:14:05;100500.16;;;2.62;100.00
7433;BME280;32233;49.500;7.764;2023-02-12T06:16:33;100500.50;;;2.70;100.00
7433;BME280;32233;49.500;7.764;2023-02-12T06:19:02;100509.78;;;2.61;100.00
7433;BME280;32233;49.500;7.764;2023-02-12T06:21:29;100504.97;;;2.68;100.00
7433;BME280;32233;49.500;7.764;2023-02-12T06:23:57;100504.56;;;2.61;100.00
7433;BME280;32233;49.500;7.764;2023-02-12T06:26:24;100517.16;;;2.55;100.00
7433;BME280;32233;49.500;7.764;2023-02-12T06:28:51;100505.78;;;2.68;100.00
7433;BME280;32233;49.500;7.764;2023-02-12T06:31:28;100513.94;;;2.64;100.00
7433;BME280;32233;49.500;7.764;2023-02-12T06:33:56;100515.03;;;2.47;100.00
7433;BME280;32233;49.500;7.764;2023-02-12T06:36:23;100514.38;;;2.43;100.00
7433;BME280;32233;49.500;7.764;2023-02-12T06:38:50;100522.63;;;2.37;100.00
7433;BME280;32233;49.500;7.764;2023-02-12T06:41:17;100517.78;;;2.31;100.00
7433;BME280;32233;49.500;7.764;2023-02-12T06:43:44;100523.75;;;2.33;100.00
7433;BME280;32233;49.500;7.764;2023-02-12T06:46:11;100518.25;;;2.38;100.00
7433;BME280;32233;49.500;7.764;2023-02-12T06:48:38;100522.41;;;2.40;100.00
7433;BME280;32233;49.500;7.764;2023-02-12T06:51:10;100518.44;;;2.62;100.00
7433;BME280;32233;49.500;7.764;2023-02-12T06:53:38;100529.41;;;2.40;100.00
7433;BME280;32233;49.500;7.764;2023-02-12T06:56:06;100525.09;;;2.53;100.00
7433;BME280;32233;49.500;7.764;2023-02-12T06:58:38;100526.91;;;2.65;100.00
7433;BME280;32233;49.500;7.764;2023-02-12T07:01:16;100532.59;;;2.85;100.00
7433;BME280;32233;49.500;7.764;2023-02-12T07:03:47;100534.00;;;2.63;100.00
7433;BME280;32233;49.500;7.764;2023-02-12T07:06:15;100540.09;;;2.77;100.00
7433;BME280;32233;49.500;7.764;2023-02-12T07:08:42;100534.81;;;2.64;100.00
7433;BME280;32233;49.500;7.764;2023-02-12T07:11:09;100539.44;;;2.73;100.00
7433;BME280;32233;49.500;7.764;2023-02-12T07:13:36;100538.94;;;2.81;100.00
7433;BME280;32233;49.500;7.764;2023-02-12T07:16:11;100542.66;;;2.91;100.00
7433;BME280;32233;49.500;7.764;2023-02-12T07:18:38;100542.03;;;3.00;100.00
7433;BME280;32233;49.500;7.764;2023-02-12T07:21:06;100541.63;;;3.06;100.00
7433;BME280;32233;49.500;7.764;2023-02-12T07:23:34;100540.16;;;3.02;100.00
7433;BME280;32233;49.500;7.764;2023-02-12T07:26:03;100557.50;;;3.03;100.00
7433;BME280;32233;49.500;7.764;2023-02-12T07:28:30;100552.31;;;2.76;100.00
7433;BME280;32233;49.500;7.764;2023-02-12T07:33:41;100552.56;;;2.86;100.00
7433;BME280;32233;49.500;7.764;2023-02-12T07:36:11;100559.03;;;2.93;100.00
7433;BME280;32233;49.500;7.764;2023-02-12T07:38:38;100552.34;;;2.89;100.00
7433;BME280;32233;49.500;7.764;2023-02-12T07:41:17;100551.13;;;2.94;100.00
7433;BME280;32233;49.500;7.764;2023-02-12T07:43:45;100552.78;;;2.95;100.00
7433;BME280;32233;49.500;7.764;2023-02-12T07:46:17;100548.94;;;3.14;100.00
7433;BME280;32233;49.500;7.764;2023-02-12T07:48:45;100549.81;;;3.27;100.00
7433;BME280;32233;49.500;7.764;2023-02-12T07:51:15;100557.09;;;3.22;100.00
7433;BME280;32233;49.500;7.764;2023-02-12T07:53:44;100549.00;;;3.39;100.00
7433;BME280;32233;49.500;7.764;2023-02-12T07:56:19;100548.66;;;3.44;100.00
7433;BME280;32233;49.500;7.764;2023-02-12T07:58:47;100558.19;;;3.32;100.00
7433;BME280;32233;49.500;7.764;2023-02-12T08:03:44;100556.72;;;3.41;100.00
7433;BME280;32233;49.500;7.764;2023-02-12T08:06:16;100550.44;;;3.56;100.00
7433;BME280;32233;49.500;7.764;2023-02-12T08:08:43;100558.06;;;3.34;100.00
7433;BME280;32233;49.500;7.764;2023-02-12T08:11:11;100560.59;;;3.35;100.00
7433;BME280;32233;49.500;7.764;2023-02-12T08:13:39;100557.16;;;3.60;100.00
7433;BME280;32233;49.500;7.764;2023-02-12T08:16:08;100559.63;;;3.62;100.00
7433;BME280;32233;49.500;7.764;2023-02-12T08:18:35;100548.56;;;3.58;100.00
7433;BME280;32233;49.500;7.764;2023-02-12T08:21:06;100550.44;;;3.69;100.00
7433;BME280;32233;49.500;7.764;2023-02-12T08:23:33;100546.44;;;3.89;100.00
7433;BME280;32233;49.500;7.764;2023-02-12T08:26:08;100550.81;;;4.01;100.00
7433;BME280;32233;49.500;7.764;2023-02-12T08:28:35;100549.13;;;4.13;100.00
7433;BME280;32233;49.500;7.764;2023-02-12T08:31:05;100559.28;;;4.05;100.00
7433;BME280;32233;49.500;7.764;2023-02-12T08:33:32;100551.81;;;4.11;100.00
7433;BME280;32233;49.500;7.764;2023-02-12T08:36:01;100556.22;;;4.11;100.00
7433;BME280;32233;49.500;7.764;2023-02-12T08:38:30;100564.00;;;3.87;100.00
7433;BME280;32233;49.500;7.764;2023-02-12T08:41:06;100563.09;;;3.88;100.00
7433;BME280;32233;49.500;7.764;2023-02-12T08:43:33;100566.91;;;4.08;100.00
7433;BME280;32233;49.500;7.764;2023-02-12T08:46:02;100566.13;;;4.31;100.00
7433;BME280;32233;49.500;7.764;2023-02-12T08:48:30;100557.78;;;4.26;100.00
7433;BME280;32233;49.500;7.764;2023-02-12T08:53:35;100568.88;;;4.54;100.00
7433;BME280;32233;49.500;7.764;2023-02-12T08:56:03;100570.78;;;4.52;100.00
7433;BME280;32233;49.500;7.764;2023-02-12T08:58:31;100564.75;;;4.86;100.00
7433;BME280;32233;49.500;7.764;2023-02-12T09:00:58;100566.59;;;4.73;100.00
7433;BME280;32233;49.500;7.764;2023-02-12T09:03:24;100570.84;;;4.63;100.00
7433;BME280;32233;49.500;7.764;2023-02-12T09:05:51;100574.06;;;4.66;100.00
7433;BME280;32233;49.500;7.764;2023-02-12T09:08:18;100566.84;;;4.81;100.00
7433;BME280;32233;49.500;7.764;2023-02-12T09:10:45;100567.03;;;4.91;100.00
7433;BME280;32233;49.500;7.764;2023-02-12T09:13:13;100564.41;;;4.91;100.00
7433;BME280;32233;49.500;7.764;2023-02-12T09:15:42;100559.59;;;4.74;100.00
7433;BME280;32233;49.500;7.764;2023-02-12T09:18:11;100563.19;;;4.84;100.00
7433;BME280;32233;49.500;7.764;2023-02-12T09:20:41;100561.94;;;5.01;100.00
7433;BME280;32233;49.500;7.764;2023-02-12T09:23:10;100566.13;;;5.03;100.00
7433;BME280;32233;49.500;7.764;2023-02-12T09:25:41;100567.38;;;4.86;100.00
7433;BME280;32233;49.500;7.764;2023-02-12T09:28:09;100563.13;;;4.96;100.00
7433;BME280;32233;49.500;7.764;2023-02-12T09:30:37;100565.22;;;5.15;100.00
7433;BME280;32233;49.500;7.764;2023-02-12T09:33:05;100569.38;;;5.18;100.00
7433;BME280;32233;49.500;7.764;2023-02-12T09:35:36;100561.91;;;5.25;100.00
7433;BME280;32233;49.500;7.764;2023-02-12T09:38:04;100565.25;;;5.38;100.00
7433;BME280;32233;49.500;7.764;2023-02-12T09:43:54;100569.69;;;5.49;100.00
7433;BME280;32233;49.500;7.764;2023-02-12T09:46:00;100573.75;;;5.53;100.00
7433;BME280;32233;49.500;7.764;2023-02-12T09:51:10;100569.00;;;5.58;100.00
7433;BME280;32233;49.500;7.764;2023-02-12T09:53:40;100571.66;;;6.03;100.00
7433;BME280;32233;49.500;7.764;2023-02-12T09:56:12;100572.41;;;6.05;100.00
7433;BME280;32233;49.500;7.764;2023-02-12T09:58:48;100576.41;;;5.75;100.00
7433;BME280;32233;49.500;7.764;2023-02-12T10:01:18;100575.09;;;5.81;100.00
7433;BME280;32233;49.500;7.764;2023-02-12T10:03:47;100571.78;;;6.01;100.00
7433;BME280;32233;49.500;7.764;2023-02-12T10:06:17;100576.19;;;6.12;100.00
7433;BME280;32233;49.500;7.764;2023-02-12T10:11:36;100580.22;;;5.71;100.00
7433;BME280;32233;49.500;7.764;2023-02-12T10:20:02;100583.13;;;6.13;100.00
7433;BME280;32233;49.500;7.764;2023-02-12T10:23:06;100579.63;;;5.90;100.00
7433;BME280;32233;49.500;7.764;2023-02-12T10:28:12;100584.78;;;5.80;100.00
7433;BME280;32233;49.500;7.764;2023-02-12T10:30:47;100584.88;;;5.79;100.00
7433;BME280;32233;49.500;7.764;2023-02-12T10:35:59;100577.50;;;6.17;100.00
7433;BME280;32233;49.500;7.764;2023-02-12T10:38:33;100569.03;;;6.03;100.00
7433;BME280;32233;49.500;7.764;2023-02-12T10:41:01;100571.19;;;6.09;100.00
7433;BME280;32233;49.500;7.764;2023-02-12T10:43:28;100576.09;;;6.13;100.00
7433;BME280;32233;49.500;7.764;2023-02-12T10:45:58;100573.69;;;6.22;100.00
7433;BME280;32233;49.500;7.764;2023-02-12T10:48:31;100563.19;;;6.22;100.00
7433;BME280;32233;49.500;7.764;2023-02-12T10:53:38;100558.63;;;6.35;99.57
7433;BME280;32233;49.500;7.764;2023-02-12T10:59:21;100548.97;;;6.24;98.92
7433;BME280;32233;49.500;7.764;2023-02-12T11:01:48;100547.53;;;6.31;98.74
7433;BME280;32233;49.500;7.764;2023-02-12T11:04:29;100548.97;;;6.24;100.00
7433;BME280;32233;49.500;7.764;2023-02-12T11:09:28;100551.94;;;6.31;99.27
7433;BME280;32233;49.500;7.764;2023-02-12T11:11:57;100549.00;;;6.56;98.20
7433;BME280;32233;49.500;7.764;2023-02-12T11:14:23;100546.50;;;6.66;97.21
7433;BME280;32233;49.500;7.764;2023-02-12T11:16:55;100541.34;;;6.64;96.76
7433;BME280;32233;49.500;7.764;2023-02-12T11:19:26;100542.69;;;6.59;96.60
7433;BME280;32233;49.500;7.764;2023-02-12T11:22:20;100542.00;;;6.45;97.91
7433;BME280;32233;49.500;7.764;2023-02-12T11:24:59;100534.97;;;6.46;97.50
7433;BME280;32233;49.500;7.764;2023-02-12T11:27:29;100534.00;;;6.79;95.28
7433;BME280;32233;49.500;7.764;2023-02-12T11:30:16;100535.88;;;6.56;96.30
7433;BME280;32233;49.500;7.764;2023-02-12T11:32:43;100525.66;;;6.42;97.43
7433;BME280;32233;49.500;7.764;2023-02-12T11:37:44;100526.38;;;6.76;94.89
7433;BME280;32233;49.500;7.764;2023-02-12T11:40:26;100519.19;;;6.46;95.74
7433;BME280;32233;49.500;7.764;2023-02-12T11:42:57;100512.31;;;6.66;94.99
7433;BME280;32233;49.500;7.764;2023-02-12T11:45:32;100513.75;;;6.91;93.81
7433;BME280;32233;49.500;7.764;2023-02-12T11:48:01;100516.63;;;6.88;94.64
7433;BME280;32233;49.500;7.764;2023-02-12T11:50:31;100518.59;;;7.07;93.02
7433;BME280;32233;49.500;7.764;2023-02-12T11:53:02;100520.50;;;7.05;93.83
7433;BME280;32233;49.500;7.764;2023-02-12T11:55:34;100511.72;;;6.94;93.99
7433;BME280;32233;49.500;7.764;2023-02-12T11:58:16;100512.97;;;6.79;93.52
7433;BME280;32233;49.500;7.764;2023-02-12T12:09:18;100503.06;;;6.51;95.20
7433;BME280;32233;49.500;7.764;2023-02-12T12:12:19;100498.56;;;6.74;93.43
7433;BME280;32233;49.500;7.764;2023-02-12T12:15:25;100502.13;;;6.73;94.14
7433;BME280;32233;49.500;7.764;2023-02-12T12:24:30;100489.75;;;6.84;93.11
7433;BME280;32233;49.500;7.764;2023-02-12T12:27:11;100487.75;;;6.77;92.97
7433;BME280;32233;49.500;7.764;2023-02-12T12:30:02;100490.88;;;7.03;91.36
7433;BME280;32233;49.500;7.764;2023-02-12T12:32:35;100484.69;;;6.92;92.52
7433;BME280;32233;49.500;7.764;2023-02-12T12:35:03;100487.78;;;6.98;92.68
7433;BME280;32233;49.500;7.764;2023-02-12T12:37:47;100481.94;;;7.15;91.49
7433;BME280;32233;49.500;7.764;2023-02-12T12:40:41;100483.06;;;7.22;90.85
7433;BME280;32233;49.500;7.764;2023-02-12T12:43:24;100484.03;;;7.21;90.65
7433;BME280;32233;49.500;7.764;2023-02-12T12:46:25;100485.72;;;7.01;92.42
7433;BME280;32233;49.500;7.764;2023-02-12T13:00:07;100472.56;;;7.01;92.04
7433;BME280;32233;49.500;7.764;2023-02-12T13:03:04;100470.09;;;7.30;90.77
7433;BME280;32233;49.500;7.764;2023-02-12T13:05:49;100467.63;;;7.29;90.18
7433;BME280;32233;49.500;7.764;2023-02-12T13:08:28;100466.09;;;6.84;92.69
7433;BME280;32233;49.500;7.764;2023-02-12T13:11:12;100464.59;;;7.33;90.34
7433;BME280;32233;49.500;7.764;2023-02-12T13:13:45;100462.94;;;7.32;89.53
7433;BME280;32233;49.500;7.764;2023-02-12T13:16:45;100456.88;;;7.41;90.10
7433;BME280;32233;49.500;7.764;2023-02-12T13:19:27;100453.81;;;7.36;88.25
7433;BME280;32233;49.500;7.764;2023-02-12T13:22:08;100460.69;;;7.58;87.90
7433;BME280;32233;49.500;7.764;2023-02-12T13:27:21;100447.53;;;7.58;87.87
7433;BME280;32233;49.500;7.764;2023-02-12T13:30:38;100442.50;;;7.45;87.42
7433;BME280;32233;49.500;7.764;2023-02-12T13:35:29;100434.38;;;7.58;86.29
7433;BME280;32233;49.500;7.764;2023-02-12T13:37:57;100437.88;;;7.78;86.32
7433;BME280;32233;49.500;7.764;2023-02-12T13:40:27;100437.38;;;7.94;85.28
7433;BME280;32233;49.500;7.764;2023-02-12T13:46:10;100426.03;;;7.53;86.96
7433;BME280;32233;49.500;7.764;2023-02-12T13:48:46;100433.78;;;7.55;87.13
7433;BME280;32233;49.500;7.764;2023-02-12T13:54:04;100428.44;;;7.66;85.37
7433;BME280;32233;49.500;7.764;2023-02-12T13:56:47;100420.88;;;7.42;87.17
7433;BME280;32233;49.500;7.764;2023-02-12T14:04:31;100418.63;;;7.78;86.04
7433;BME280;32233;49.500;7.764;2023-02-12T14:07:04;100426.22;;;7.71;85.60
7433;BME280;32233;49.500;7.764;2023-02-12T14:12:14;100418.06;;;7.74;86.10
7433;BME280;32233;49.500;7.764;2023-02-12T14:14:47;100422.75;;;7.70;85.89
7433;BME280;32233;49.500;7.764;2023-02-12T14:20:21;100417.75;;;7.58;88.29
7433;BME280;32233;49.500;7.764;2023-02-12T14:38:00;100409.72;;;7.19;90.41
7433;BME280;32233;49.500;7.764;2023-02-12T14:43:03;100412.53;;;7.37;90.65
7433;BME280;32233;49.500;7.764;2023-02-12T14:45:44;100407.34;;;7.16;90.86
7433;BME280;32233;49.500;7.764;2023-02-12T14:48:38;100407.59;;;7.13;90.87
7433;BME280;32233;49.500;7.764;2023-02-12T14:51:15;100411.88;;;7.14;91.25
7433;BME280;32233;49.500;7.764;2023-02-12T14:53:44;100408.13;;;7.07;91.32
7433;BME280;32233;49.500;7.764;2023-02-12T14:56:12;100404.94;;;6.82;92.45
7433;BME280;32233;49.500;7.764;2023-02-12T14:58:39;100409.56;;;6.90;92.78
7433;BME280;32233;49.500;7.764;2023-02-12T15:01:06;100409.66;;;7.09;91.62
7433;BME280;32233;49.500;7.764;2023-02-12T15:03:40;100401.53;;;6.91;92.20
7433;BME280;32233;49.500;7.764;2023-02-12T15:06:14;100403.91;;;6.94;92.17
7433;BME280;32233;49.500;7.764;2023-02-12T15:09:00;100407.63;;;6.92;92.88
7433;BME280;32233;49.500;7.764;2023-02-12T15:11:38;100402.56;;;6.79;92.44
7433;BME280;32233;49.500;7.764;2023-02-12T15:17:01;100404.56;;;6.66;92.84
7433;BME280;32233;49.500;7.764;2023-02-12T15:19:57;100396.72;;;6.34;95.62
7433;BME280;32233;49.500;7.764;2023-02-12T15:22:34;100404.50;;;6.56;93.96
7433;BME280;32233;49.500;7.764;2023-02-12T15:27:54;100400.16;;;6.45;94.64
7433;BME280;32233;49.500;7.764;2023-02-12T15:30:30;100400.13;;;6.25;96.67
7433;BME280;32233;49.500;7.764;2023-02-12T15:33:01;100401.00;;;6.14;97.36
7433;BME280;32233;49.500;7.764;2023-02-12T15:35:31;100401.22;;;6.11;97.66